createdAt,value
2023-04-22T00:00:56.679Z,94775.06
2023-04-22T00:03:26.251Z,94783.72
2023-04-22T00:05:54.759Z,94791.38
2023-04-22T00:08:23.000Z,94778.94
2023-04-22T00:10:51.159Z,94776.84
2023-04-22T00:13:19.658Z,94775.91
2023-04-22T00:15:47.778Z,94779.53
2023-04-22T00:18:16.283Z,94771.44
2023-04-22T00:20:46.104Z,94777.59
2023-04-22T00:23:15.941Z,94773.22
2023-04-22T00:25:44.107Z,94765.06
2023-04-22T00:28:12.359Z,94774.09
2023-04-22T00:30:40.438Z,94771.06
2023-04-22T00:33:08.449Z,94776.47
2023-04-22T00:35:36.839Z,94777.00
2023-04-22T00:38:07.225Z,94753.59
2023-04-22T00:40:36.893Z,94776.06
2023-04-22T00:43:05.116Z,94789.31
2023-04-22T00:45:33.399Z,94784.59
2023-04-22T00:48:02.149Z,94784.88
2023-04-22T00:50:32.528Z,94794.28
2023-04-22T00:53:00.656Z,94793.88
2023-04-22T00:55:31.113Z,94791.25
2023-04-22T00:58:03.350Z,94762.59
2023-04-22T01:00:32.028Z,94798.25
2023-04-22T01:03:00.333Z,94785.72
2023-04-22T01:05:31.009Z,94797.81
2023-04-22T01:08:01.306Z,94788.16
2023-04-22T01:10:30.985Z,94793.16
2023-04-22T01:12:58.884Z,94806.28
2023-04-22T01:15:28.929Z,94801.72
2023-04-22T01:17:58.208Z,94802.25
2023-04-22T01:20:29.713Z,94810.91
2023-04-22T01:22:58.360Z,94805.81
2023-04-22T01:25:29.474Z,94786.31
2023-04-22T01:27:58.337Z,94809.66
2023-04-22T01:30:26.871Z,94803.41
2023-04-22T01:32:55.089Z,94812.78
2023-04-22T01:35:23.365Z,94803.13
2023-04-22T01:37:53.134Z,94805.56
2023-04-22T01:40:23.619Z,94809.84
2023-04-22T01:42:55.104Z,94798.44
2023-04-22T01:45:24.761Z,94798.06
2023-04-22T01:47:52.758Z,94793.81
2023-04-22T01:50:22.107Z,94785.09
2023-04-22T01:52:51.510Z,94789.03
2023-04-22T01:55:19.836Z,94793.16
2023-04-22T01:57:47.909Z,94780.72
2023-04-22T02:00:18.079Z,94776.84
2023-04-22T02:02:46.197Z,94766.25
2023-04-22T02:05:15.098Z,94799.66
2023-04-22T02:07:43.089Z,94788.00
2023-04-22T02:10:14.641Z,94792.28
2023-04-22T02:12:42.798Z,94793.38
2023-04-22T02:15:12.391Z,94790.34
2023-04-22T02:17:43.850Z,94797.66
2023-04-22T02:20:13.145Z,94785.25
2023-04-22T02:22:43.488Z,94786.00
2023-04-22T02:25:14.314Z,94787.13
2023-04-22T02:27:42.594Z,94743.47
2023-04-22T02:30:11.196Z,94796.03
2023-04-22T02:32:40.351Z,94789.41
2023-04-22T02:35:11.898Z,94795.03
2023-04-22T02:37:40.748Z,94791.31
2023-04-22T02:40:09.882Z,94801.94
2023-04-22T02:42:38.000Z,94803.38
2023-04-22T02:45:07.464Z,94796.88
2023-04-22T02:47:35.867Z,94800.44
2023-04-22T02:50:05.643Z,94808.34
2023-04-22T02:52:36.078Z,94807.66
2023-04-22T02:55:04.039Z,94809.72
2023-04-22T02:57:32.024Z,94810.59
2023-04-22T03:00:00.215Z,94797.81
2023-04-22T03:02:28.252Z,94792.56
2023-04-22T03:04:56.553Z,94813.19
2023-04-22T03:07:24.552Z,94809.88
2023-04-22T03:09:55.984Z,94803.59
2023-04-22T03:12:24.102Z,94810.75
2023-04-22T03:14:52.190Z,94806.84
2023-04-22T03:17:20.825Z,94814.88
2023-04-22T03:19:49.022Z,94808.84
2023-04-22T03:22:17.191Z,94804.97
2023-04-22T03:24:45.147Z,94805.22
2023-04-22T03:27:15.871Z,94811.03
2023-04-22T03:29:44.012Z,94816.91
2023-04-22T03:32:12.517Z,94822.56
2023-04-22T03:34:40.587Z,94824.94
2023-04-22T03:37:09.120Z,94811.34
2023-04-22T03:39:39.134Z,94821.25
2023-04-22T03:42:07.562Z,94831.53
2023-04-22T03:44:37.464Z,94829.13
2023-04-22T03:47:05.605Z,94823.97
2023-04-22T03:49:34.473Z,94838.41
2023-04-22T03:52:02.883Z,94827.69
2023-04-22T03:54:31.128Z,94828.22
2023-04-22T03:56:59.457Z,94828.53
2023-04-22T03:59:27.475Z,94844.09
2023-04-22T04:01:57.224Z,94830.16
2023-04-22T04:04:25.605Z,94836.50
2023-04-22T04:06:54.130Z,94837.69
2023-04-22T04:09:22.458Z,94809.09
2023-04-22T04:11:50.935Z,94845.59
2023-04-22T04:14:19.040Z,94841.81
2023-04-22T04:16:47.185Z,94837.25
2023-04-22T04:19:16.836Z,94840.19
2023-04-22T04:21:45.545Z,94841.72
2023-04-22T04:24:13.552Z,94841.34
2023-04-22T04:26:42.596Z,94847.09
2023-04-22T04:29:10.905Z,94846.00
2023-04-22T04:31:39.122Z,94856.63
2023-04-22T04:34:07.546Z,94860.75
2023-04-22T04:36:39.962Z,94858.44
2023-04-22T04:39:09.787Z,94840.59
2023-04-22T04:41:39.033Z,94875.81
2023-04-22T04:44:07.095Z,94861.47
2023-04-22T04:46:37.979Z,94873.66
2023-04-22T04:49:06.681Z,94880.81
2023-04-22T04:51:36.068Z,94881.94
2023-04-22T04:54:04.241Z,94883.97
2023-04-22T04:56:32.808Z,94892.44
2023-04-22T04:59:00.706Z,94890.09
2023-04-22T05:01:28.745Z,94875.75
2023-04-22T05:03:57.290Z,94875.53
2023-04-22T05:06:25.701Z,94890.88
2023-04-22T05:08:55.237Z,94893.00
2023-04-22T05:11:23.298Z,94810.69
2023-04-22T05:13:51.419Z,94881.97
2023-04-22T05:16:19.551Z,94879.50
2023-04-22T05:18:47.621Z,94893.81
2023-04-22T05:21:16.867Z,94897.59
2023-04-22T05:23:44.842Z,94902.19
2023-04-22T05:26:14.317Z,94901.13
2023-04-22T05:28:42.421Z,94908.94
2023-04-22T05:31:10.430Z,94888.97
2023-04-22T05:33:38.562Z,94892.91
2023-04-22T05:36:07.391Z,94892.25
2023-04-22T05:38:35.441Z,94895.94
2023-04-22T05:41:03.313Z,94894.59
2023-04-22T05:43:33.817Z,94894.09
2023-04-22T05:46:01.949Z,94891.41
2023-04-22T05:48:29.995Z,94889.91
2023-04-22T05:50:58.244Z,94889.19
2023-04-22T05:53:26.294Z,94890.22
2023-04-22T05:55:55.420Z,94885.63
2023-04-22T05:58:23.364Z,94888.94
2023-04-22T06:00:52.762Z,94883.06
2023-04-22T06:03:21.160Z,94883.84
2023-04-22T06:05:49.374Z,94881.81
2023-04-22T06:08:17.977Z,94894.22
2023-04-22T06:10:46.267Z,94895.72
2023-04-22T06:13:14.334Z,94887.88
2023-04-22T06:15:42.563Z,94867.00
2023-04-22T06:18:11.980Z,94853.72
2023-04-22T06:20:40.347Z,94879.38
2023-04-22T06:23:08.346Z,94885.66
2023-04-22T06:25:37.099Z,94894.38
2023-04-22T06:28:05.410Z,94887.06
2023-04-22T06:30:33.474Z,94894.06
2023-04-22T06:33:01.494Z,94896.25
2023-04-22T06:35:31.142Z,94900.00
2023-04-22T06:37:59.312Z,94898.53
2023-04-22T06:40:27.767Z,94901.88
2023-04-22T06:42:56.106Z,94889.44
2023-04-22T06:45:24.221Z,94895.84
2023-04-22T06:47:54.198Z,94897.84
2023-04-22T06:50:22.256Z,94895.03
2023-04-22T06:52:51.857Z,94894.25
2023-04-22T06:55:22.666Z,94899.09
2023-04-22T06:57:53.738Z,94892.47
2023-04-22T07:00:21.750Z,94884.69
2023-04-22T07:02:49.992Z,94894.97
2023-04-22T07:05:18.195Z,94904.25
2023-04-22T07:07:46.549Z,94895.91
2023-04-22T07:10:18.573Z,94886.13
2023-04-22T07:12:46.561Z,94899.63
2023-04-22T07:15:15.037Z,94897.09
2023-04-22T07:17:49.810Z,94893.66
2023-04-22T07:20:17.863Z,94893.72
2023-04-22T07:22:46.025Z,94890.09
2023-04-22T07:25:16.071Z,94908.34
2023-04-22T07:27:44.000Z,94899.41
2023-04-22T07:30:13.711Z,94899.41
2023-04-22T07:32:41.686Z,94905.91
2023-04-22T07:35:10.238Z,94892.13
2023-04-22T07:37:40.047Z,94898.19
2023-04-22T07:40:12.113Z,94872.91
2023-04-22T07:42:41.700Z,94897.25
2023-04-22T07:45:10.053Z,94901.03
2023-04-22T07:47:37.991Z,94900.16
2023-04-22T07:50:07.477Z,94892.69
2023-04-22T07:52:35.462Z,94898.53
2023-04-22T07:55:03.510Z,94872.31
2023-04-22T07:57:32.946Z,94901.31
2023-04-22T08:00:02.956Z,94889.63
2023-04-22T08:02:31.241Z,94884.78
2023-04-22T08:04:59.282Z,94886.03
2023-04-22T08:07:33.039Z,94893.03
2023-04-22T08:10:01.692Z,94899.16
2023-04-22T08:12:29.743Z,94888.50
2023-04-22T08:14:58.182Z,94882.22
2023-04-22T08:17:28.220Z,94880.31
2023-04-22T08:19:57.828Z,94890.25
2023-04-22T08:22:25.763Z,94886.44
2023-04-22T08:24:53.646Z,94873.88
2023-04-22T08:27:23.067Z,94875.84
2023-04-22T08:29:51.284Z,94875.50
2023-04-22T08:32:20.085Z,94888.06
2023-04-22T08:34:51.804Z,94864.03
2023-04-22T08:37:21.978Z,94876.50
2023-04-22T08:39:50.339Z,94868.09
2023-04-22T08:42:19.217Z,94861.16
2023-04-22T08:44:48.234Z,94859.22
2023-04-22T08:47:17.914Z,94847.47
2023-04-22T08:49:47.934Z,94816.72
2023-04-22T08:52:17.694Z,94843.09
2023-04-22T08:54:46.279Z,94835.91
2023-04-22T08:57:17.706Z,94841.94
2023-04-22T08:59:46.759Z,94841.63
2023-04-22T09:02:18.887Z,94844.97
2023-04-22T09:04:48.993Z,94827.13
2023-04-22T09:07:26.269Z,94841.56
2023-04-22T09:09:55.016Z,94836.31
2023-04-22T09:12:23.348Z,94838.75
2023-04-22T09:14:52.840Z,94834.59
2023-04-22T09:17:32.293Z,94838.56
2023-04-22T09:20:01.165Z,94828.28
2023-04-22T09:22:40.080Z,94817.81
2023-04-22T09:25:16.080Z,94830.00
2023-04-22T09:27:44.375Z,94824.28
2023-04-22T09:30:14.814Z,94818.06
2023-04-22T09:32:43.209Z,94816.84
2023-04-22T09:35:11.271Z,94814.41
2023-04-22T09:37:49.245Z,94810.88
2023-04-22T09:40:19.623Z,94809.13
2023-04-22T09:42:51.176Z,94826.22
2023-04-22T09:45:30.057Z,94811.56
2023-04-22T09:48:01.124Z,94793.41
2023-04-22T09:50:30.546Z,94779.00
2023-04-22T09:53:02.055Z,94821.59
2023-04-22T09:55:32.377Z,94813.13
2023-04-22T09:58:07.222Z,94813.88
2023-04-22T10:00:39.345Z,94816.34
2023-04-22T10:03:10.719Z,94840.56
2023-04-22T10:05:39.530Z,94835.38
2023-04-22T10:08:13.837Z,94839.47
2023-04-22T10:10:42.862Z,94833.75
2023-04-22T10:13:11.136Z,94831.19
2023-04-22T10:15:41.592Z,94832.16
2023-04-22T10:18:13.263Z,94823.69
2023-04-22T10:20:42.719Z,94818.66
2023-04-22T10:23:20.796Z,94821.38
2023-04-22T10:25:51.532Z,94813.28
2023-04-22T10:28:19.931Z,94806.00
2023-04-22T10:30:48.667Z,94813.19
2023-04-22T10:33:37.752Z,94816.00
2023-04-22T10:36:16.982Z,94813.13
2023-04-22T10:39:22.122Z,94786.22
2023-04-22T10:42:05.763Z,94790.34
2023-04-22T10:44:51.050Z,94795.56
2023-04-22T10:47:30.018Z,94794.88
2023-04-22T10:50:19.301Z,94794.97
2023-04-22T10:52:51.445Z,94793.09
2023-04-22T10:55:21.464Z,94777.84
2023-04-22T10:57:51.133Z,94781.09
2023-04-22T11:00:53.026Z,94779.47
2023-04-22T11:03:28.333Z,94798.34
2023-04-22T11:06:15.310Z,94784.47
2023-04-22T11:08:47.796Z,94751.38
2023-04-22T11:11:18.788Z,94788.47
2023-04-22T11:13:50.652Z,94815.91
2023-04-22T11:16:22.915Z,94809.53
2023-04-22T11:18:52.627Z,94816.94
2023-04-22T11:21:21.748Z,94804.00
2023-04-22T11:23:53.248Z,94799.25
2023-04-22T11:26:35.460Z,94812.94
2023-04-22T11:29:03.649Z,94807.53
2023-04-22T11:31:31.681Z,94776.41
2023-04-22T11:34:00.558Z,94825.38
2023-04-22T11:36:28.963Z,94820.22
2023-04-22T11:38:57.214Z,94768.41
2023-04-22T11:41:26.574Z,94821.34
2023-04-22T11:43:55.862Z,94820.34
2023-04-22T11:46:30.304Z,94826.75
2023-04-22T11:49:13.054Z,94838.81
2023-04-22T11:51:53.920Z,94809.59
2023-04-22T11:54:31.951Z,94844.72
2023-04-22T11:57:03.682Z,94841.59
2023-04-22T11:59:31.682Z,94830.22
2023-04-22T12:01:59.613Z,94833.75
2023-04-22T12:04:27.578Z,94848.88
2023-04-22T12:06:55.700Z,94842.91
2023-04-22T12:09:25.928Z,94832.41
2023-04-22T12:11:56.525Z,94846.25
2023-04-22T12:14:33.675Z,94836.22
2023-04-22T12:17:05.480Z,94839.72
2023-04-22T12:19:33.574Z,94839.22
2023-04-22T12:22:01.547Z,94793.75
2023-04-22T12:24:30.560Z,94835.63
2023-04-22T12:26:58.741Z,94837.66
2023-04-22T12:29:33.343Z,94834.25
2023-04-22T12:32:01.867Z,94832.38
2023-04-22T12:34:29.798Z,94839.53
2023-04-22T12:36:58.956Z,94839.25
2023-04-22T12:39:28.729Z,94835.53
2023-04-22T12:41:58.239Z,94839.88
2023-04-22T12:44:26.214Z,94837.50
2023-04-22T12:46:55.525Z,94844.88
2023-04-22T12:49:23.623Z,94842.94
2023-04-22T12:51:52.402Z,94841.34
2023-04-22T12:54:20.592Z,94838.34
2023-04-22T12:56:49.458Z,94798.19
2023-04-22T12:59:17.304Z,94823.94
2023-04-22T13:01:45.468Z,94833.97
2023-04-22T13:04:15.269Z,94834.06
2023-04-22T13:06:44.323Z,94825.66
2023-04-22T13:09:13.009Z,94836.94
2023-04-22T13:11:42.722Z,94825.13
2023-04-22T13:14:12.015Z,94788.78
2023-04-22T13:16:40.207Z,94824.47
2023-04-22T13:19:10.846Z,94817.69
2023-04-22T13:21:40.212Z,94822.44
2023-04-22T13:24:09.006Z,94821.03
2023-04-22T13:26:38.594Z,94806.63
2023-04-22T13:29:11.178Z,94819.63
2023-04-22T13:31:39.739Z,94816.41
2023-04-22T13:34:07.856Z,94814.66
2023-04-22T13:36:35.811Z,94815.75
2023-04-22T13:39:06.243Z,94821.06
2023-04-22T13:41:34.169Z,94820.19
2023-04-22T13:44:04.058Z,94810.38
2023-04-22T13:46:32.339Z,94823.00
2023-04-22T13:49:00.507Z,94818.00
2023-04-22T13:51:28.723Z,94826.47
2023-04-22T13:53:56.870Z,94820.56
2023-04-22T13:56:26.330Z,94825.03
2023-04-22T13:58:55.738Z,94819.03
2023-04-22T14:01:25.205Z,94824.97
2023-04-22T14:03:54.996Z,94811.25
2023-04-22T14:06:23.439Z,94817.72
2023-04-22T14:08:53.209Z,94829.94
2023-04-22T14:11:21.287Z,94815.25
2023-04-22T14:13:50.919Z,94815.22
2023-04-22T14:16:19.971Z,94813.31
2023-04-22T14:18:48.338Z,94816.31
2023-04-22T14:21:16.454Z,94810.09
2023-04-22T14:23:44.777Z,94815.84
2023-04-22T14:26:14.032Z,94818.31
2023-04-22T14:28:42.962Z,94807.38
2023-04-22T14:31:12.476Z,94806.91
2023-04-22T14:33:41.294Z,94809.16
2023-04-22T14:36:09.565Z,94802.91
2023-04-22T14:38:37.754Z,94800.13
2023-04-22T14:41:06.492Z,94803.34
2023-04-22T14:43:34.823Z,94816.75
2023-04-22T14:46:03.162Z,94805.13
2023-04-22T14:48:35.434Z,94808.84
2023-04-22T14:51:05.306Z,94773.81
2023-04-22T14:53:33.312Z,94811.41
2023-04-22T14:56:01.529Z,94809.44
2023-04-22T14:58:31.710Z,94806.41
2023-04-22T15:01:00.844Z,94794.00
2023-04-22T15:03:29.368Z,94813.13
2023-04-22T15:05:59.084Z,94823.06
2023-04-22T15:08:27.451Z,94819.31
2023-04-22T15:10:55.701Z,94807.88
2023-04-22T15:13:23.795Z,94817.78
2023-04-22T15:15:51.826Z,94823.44
2023-04-22T15:18:20.092Z,94821.19
2023-04-22T15:20:48.124Z,94818.38
2023-04-22T15:23:17.637Z,94820.16
2023-04-22T15:25:46.126Z,94815.69
2023-04-22T15:28:14.154Z,94812.75
2023-04-22T15:30:42.096Z,94809.97
2023-04-22T15:33:10.314Z,94817.03
2023-04-22T15:35:38.621Z,94816.53
2023-04-22T15:38:07.990Z,94819.81
2023-04-22T15:40:37.516Z,94813.81
2023-04-22T15:43:05.857Z,94825.50
2023-04-22T15:45:35.318Z,94822.44
2023-04-22T15:48:03.380Z,94828.34
2023-04-22T15:50:31.848Z,94836.28
2023-04-22T15:52:59.744Z,94831.81
2023-04-22T15:55:27.830Z,94831.25
2023-04-22T15:57:57.655Z,94829.25
2023-04-22T16:00:26.222Z,94841.59
2023-04-22T16:02:56.242Z,94839.84
2023-04-22T16:05:25.320Z,94852.94
2023-04-22T16:07:54.076Z,94842.75
2023-04-22T16:10:22.991Z,94850.41
2023-04-22T16:12:51.437Z,94851.47
2023-04-22T16:15:23.688Z,94859.19
2023-04-22T16:17:52.021Z,94856.28
2023-04-22T16:20:20.040Z,94863.59
2023-04-22T16:22:48.527Z,94862.81
2023-04-22T16:25:17.323Z,94861.16
2023-04-22T16:27:45.669Z,94862.94
2023-04-22T16:30:16.229Z,94865.81
2023-04-22T16:32:45.954Z,94859.84
2023-04-22T16:35:14.005Z,94869.13
2023-04-22T16:37:42.108Z,94864.94
2023-04-22T16:40:11.073Z,94878.91
2023-04-22T16:42:39.405Z,94884.16
2023-04-22T16:45:08.760Z,94873.38
2023-04-22T16:47:36.974Z,94879.94
2023-04-22T16:50:08.117Z,94872.88
2023-04-22T16:52:36.023Z,94886.97
2023-04-22T16:55:05.418Z,94879.38
2023-04-22T16:57:34.096Z,94896.72
2023-04-22T17:00:02.393Z,94890.19
2023-04-22T17:02:31.061Z,94906.59
2023-04-22T17:05:01.269Z,94895.81
2023-04-22T17:07:30.537Z,94918.53
2023-04-22T17:09:58.557Z,94889.31
2023-04-22T17:12:26.673Z,94921.44
2023-04-22T17:14:54.870Z,94924.91
2023-04-22T17:17:22.931Z,94933.63
2023-04-22T17:19:51.166Z,94923.81
2023-04-22T17:22:19.263Z,94930.00
2023-04-22T17:24:49.050Z,94929.81
2023-04-22T17:27:18.260Z,94912.19
2023-04-22T17:29:46.628Z,94939.75
2023-04-22T17:32:14.893Z,94946.50
2023-04-22T17:34:43.506Z,94948.00
2023-04-22T17:37:11.875Z,94956.25
2023-04-22T17:39:40.618Z,94955.66
2023-04-22T17:42:10.368Z,94957.53
2023-04-22T17:44:38.486Z,94959.69
2023-04-22T17:47:07.699Z,94953.41
2023-04-22T17:49:35.761Z,94958.63
2023-04-22T17:52:03.762Z,94958.25
2023-04-22T17:54:32.218Z,94969.84
2023-04-22T17:57:02.233Z,94978.00
2023-04-22T17:59:31.613Z,94973.13
2023-04-22T18:02:01.417Z,94977.66
2023-04-22T18:04:29.743Z,94984.88
2023-04-22T18:06:57.766Z,94986.34
2023-04-22T18:09:27.407Z,94983.47
2023-04-22T18:11:58.408Z,94986.13
2023-04-22T18:14:26.841Z,94996.94
2023-04-22T18:16:56.696Z,95013.22
2023-04-22T18:19:24.914Z,95008.72
2023-04-22T18:21:59.656Z,95018.06
2023-04-22T18:24:28.730Z,95015.06
2023-04-22T18:26:58.159Z,95015.66
2023-04-22T18:29:26.377Z,95022.28
2023-04-22T18:31:55.979Z,95021.06
2023-04-22T18:34:24.284Z,95032.84
2023-04-22T18:36:52.492Z,95028.84
2023-04-22T18:39:21.233Z,95035.19
2023-04-22T18:41:49.296Z,95026.97
2023-04-22T18:44:17.365Z,95030.44
2023-04-22T18:46:46.017Z,95029.69
2023-04-22T18:49:15.407Z,95036.94
2023-04-22T18:51:43.438Z,95040.25
2023-04-22T18:54:11.369Z,95038.19
2023-04-22T18:56:39.276Z,95050.19
2023-04-22T18:59:07.354Z,95046.91
2023-04-22T19:01:35.805Z,95042.97
2023-04-22T19:04:04.579Z,95013.78
2023-04-22T19:06:33.992Z,95051.13
2023-04-22T19:09:02.376Z,95063.31
2023-04-22T19:11:30.586Z,95054.13
2023-04-22T19:13:58.689Z,95036.69
2023-04-22T19:16:26.759Z,95056.53
2023-04-22T19:18:55.115Z,95067.97
2023-04-22T19:21:23.599Z,95064.94
2023-04-22T19:23:53.055Z,95057.13
2023-04-22T19:26:21.382Z,95064.69
2023-04-22T19:28:49.557Z,95035.47
2023-04-22T19:31:18.754Z,95069.47
2023-04-22T19:33:47.130Z,95061.06
2023-04-22T19:36:15.321Z,95063.00
2023-04-22T19:38:43.350Z,95048.25
2023-04-22T19:41:13.696Z,95065.44
2023-04-22T19:43:42.021Z,95044.81
2023-04-22T19:46:10.063Z,95019.97
2023-04-22T19:48:38.658Z,95071.31
2023-04-22T19:51:07.620Z,95072.19
2023-04-22T19:53:37.106Z,95063.16
2023-04-22T19:56:05.148Z,95055.78
2023-04-22T19:58:34.859Z,95052.31
2023-04-22T20:01:03.818Z,95045.25
2023-04-22T20:03:33.148Z,95047.81
2023-04-22T20:06:03.064Z,95052.31
2023-04-22T20:08:32.115Z,95059.25
2023-04-22T20:11:00.751Z,95050.53
2023-04-22T20:13:29.152Z,95060.44
2023-04-22T20:16:01.082Z,95049.28
2023-04-22T20:18:29.546Z,95043.41
2023-04-22T20:20:59.228Z,95049.81
2023-04-22T20:23:28.705Z,95051.31
2023-04-22T20:25:58.000Z,95048.34
2023-04-22T20:28:43.154Z,95046.84
2023-04-22T20:31:13.136Z,95050.09
2023-04-22T20:33:41.654Z,95060.66
2023-04-22T20:36:11.855Z,95054.59
2023-04-22T20:38:40.178Z,95055.47
2023-04-22T20:41:10.293Z,95055.63
2023-04-22T20:43:38.604Z,95052.75
2023-04-22T20:46:06.782Z,95050.88
2023-04-22T20:48:36.622Z,95055.81
2023-04-22T20:51:05.733Z,95058.56
2023-04-22T20:53:34.155Z,95053.69
2023-04-22T20:56:02.218Z,95051.53
2023-04-22T20:58:30.393Z,95054.84
2023-04-22T21:00:58.299Z,95050.31
2023-04-22T21:03:29.091Z,95058.97
2023-04-22T21:05:59.824Z,95046.03
2023-04-22T21:08:28.048Z,95066.78
2023-04-22T21:10:57.839Z,95053.19
2023-04-22T21:13:26.638Z,95063.88
2023-04-22T21:15:59.118Z,95058.47
2023-04-22T21:18:29.305Z,95043.25
2023-04-22T21:20:59.909Z,95055.09
2023-04-22T21:23:28.544Z,95053.44
2023-04-22T21:25:57.705Z,95052.69
2023-04-22T21:28:27.637Z,95028.94
2023-04-22T21:30:56.347Z,95058.81
2023-04-22T21:33:25.377Z,95044.06
2023-04-22T21:35:53.509Z,95059.41
2023-04-22T21:38:23.257Z,95059.97
2023-04-22T21:40:51.293Z,95056.06
2023-04-22T21:43:19.220Z,95058.44
2023-04-22T21:45:47.100Z,95049.47
2023-04-22T21:48:15.071Z,95061.34
2023-04-22T21:50:43.420Z,95047.38
2023-04-22T21:53:12.079Z,95056.56
2023-04-22T21:55:42.673Z,95057.81
2023-04-22T21:58:10.719Z,95067.47
2023-04-22T22:00:39.012Z,95058.09
2023-04-22T22:03:08.550Z,95067.66
2023-04-22T22:05:37.867Z,95058.47
2023-04-22T22:08:05.833Z,95052.31
2023-04-22T22:10:34.068Z,95059.72
2023-04-22T22:13:03.640Z,95061.53
2023-04-22T22:15:31.841Z,95059.72
2023-04-22T22:18:00.045Z,95054.84
2023-04-22T22:20:29.754Z,95060.34
2023-04-22T22:22:58.049Z,95068.50
2023-04-22T22:25:26.244Z,95070.75
2023-04-22T22:27:54.181Z,95075.53
2023-04-22T22:30:23.707Z,95086.56
2023-04-22T22:32:52.931Z,95072.78
2023-04-22T22:35:21.298Z,95075.16
2023-04-22T22:37:49.820Z,95077.31
2023-04-22T22:40:18.054Z,95025.78
2023-04-22T22:42:45.991Z,95065.31
2023-04-22T22:45:14.565Z,95072.84
2023-04-22T22:47:44.061Z,95073.28
2023-04-22T22:50:12.666Z,95067.13
2023-04-22T22:52:41.110Z,95070.28
2023-04-22T22:55:10.199Z,95068.53
2023-04-22T22:57:38.172Z,95072.03
2023-04-22T23:00:09.479Z,95069.97
2023-04-22T23:02:37.928Z,95054.84
2023-04-22T23:05:11.149Z,95061.34
2023-04-22T23:07:39.124Z,95071.41
2023-04-22T23:10:08.985Z,95064.88
2023-04-22T23:12:36.985Z,95071.03
2023-04-22T23:15:05.830Z,95067.88
2023-04-22T23:17:33.968Z,95072.78
2023-04-22T23:20:02.741Z,95074.38
2023-04-22T23:22:33.799Z,95068.06
2023-04-22T23:25:02.306Z,95071.66
2023-04-22T23:27:31.805Z,95075.28
2023-04-22T23:30:00.437Z,95062.03
2023-04-22T23:32:30.350Z,95061.78
2023-04-22T23:35:01.328Z,95055.22
2023-04-22T23:37:31.656Z,95059.59
2023-04-22T23:40:00.974Z,95056.25
2023-04-22T23:42:29.106Z,95060.63
2023-04-22T23:44:58.466Z,95043.53
2023-04-22T23:47:26.652Z,95057.25
2023-04-22T23:49:54.683Z,95059.47
2023-04-22T23:52:23.652Z,95059.03
2023-04-22T23:54:55.124Z,95051.91
2023-04-22T23:57:25.520Z,95058.09
2023-04-22T23:59:54.003Z,95056.31
